KBKL/BKL METAR and TAF weather

Enter ICAO airport designator
Station Type Date Time Source
KBKL METAR 2022/08/16 17:53 UTC NOAA

KBKL 161753Z 06009KT 10SM SCT047 BKN060 OVC075 25/15 A3005 RMK AO2 SLP170 60000 T02500150 10256 20200 58001


Station Type Date Time Source
KBKL Decoded METAR 2022/08/16 17:53 UTC NOAA

CLEVELAND BURKE LAKEFRONT, OH, United States (KBKL) 41-32N 81-40W 184M
Aug 16, 2022 - 01:53 PM EDT / 2022.08.16 1753 UTC
Wind: from the ENE (060 degrees) at 10 MPH (9 KT):0
Visibility: 10 mile(s):0
Sky conditions: overcast
Temperature: 77.0 F (25.0 C)
Dew Point: 59.0 F (15.0 C)
Relative Humidity: 53%
Pressure (altimeter): 30.05 in. Hg (1017 hPa)
Pressure tendency: 0.00 inches (0.1 hPa) lower than three hours ago
ob: KBKL 161753Z 06009KT 10SM SCT047 BKN060 OVC075 25/15 A3005 RMK AO2 SLP170 60000 T02500150 10256 20200 58001
cycle: 18

Station Type Date Time Source
KBKL TAF UTC NOAA

Error!

Example: see airport list